Time;durP1;ratioP1;P1;durP2;ratioP2;P2;SDS_P1;SDS_P2;PMS_P1;PMS_P2;Temp;Humidity;BMP_temperature;BMP_pressure;BME280_temperature;BME280_humidity;BME280_pressure;Samples;Min_cycle;Max_cycle;Signal;HPM_P1;HPM_P2
2022/03/09 00:02:20;;;;;;;7.88;5.32;;;0.00;99.90;;;;;;4998855;28;20057;-77
2022/03/09 00:04:46;;;;;;;9.32;5.10;;;1.00;99.90;;;;;;5013468;28;20061;-77
2022/03/09 00:07:12;;;;;;;9.30;5.10;;;0.00;99.90;;;;;;4997461;28;20050;-77
2022/03/09 00:09:37;;;;;;;7.90;5.63;;;0.00;99.90;;;;;;5015662;28;20069;-77
2022/03/09 00:12:04;;;;;;;7.97;4.90;;;-0.10;99.90;;;;;;5000357;28;20479;-77
2022/03/09 00:14:30;;;;;;;6.97;5.15;;;-0.10;99.90;;;;;;5005837;28;20508;-78
2022/03/09 00:16:55;;;;;;;7.28;5.28;;;-0.10;99.90;;;;;;5007001;28;20852;-78
2022/03/09 00:19:21;;;;;;;7.28;4.82;;;-0.10;99.90;;;;;;5004386;28;20062;-78
2022/03/09 00:21:47;;;;;;;8.88;5.97;;;1.30;99.90;;;;;;4986178;28;20064;-78
2022/03/09 00:24:14;;;;;;;8.43;5.20;;;-0.20;99.90;;;;;;4980736;28;20124;-77
2022/03/09 00:26:41;;;;;;;8.07;4.95;;;0.60;99.90;;;;;;5005959;28;20064;-77
2022/03/09 00:29:07;;;;;;;7.70;5.10;;;-0.30;99.90;;;;;;4996754;28;20081;-78
2022/03/09 00:31:33;;;;;;;6.95;5.47;;;1.00;99.90;;;;;;4998339;28;20145;-79
2022/03/09 00:33:58;;;;;;;8.73;5.75;;;0.00;99.90;;;;;;5014870;28;20042;-78
2022/03/09 00:36:24;;;;;;;9.75;5.18;;;-0.40;99.90;;;;;;5013671;28;20041;-76
2022/03/09 00:38:50;;;;;;;8.07;5.25;;;-0.10;99.90;;;;;;5005139;28;20045;-77
2022/03/09 00:41:16;;;;;;;8.98;6.07;;;-0.40;99.90;;;;;;4998321;28;20037;-81
2022/03/09 00:43:42;;;;;;;9.15;5.82;;;-0.30;99.90;;;;;;5011687;28;20053;-77
2022/03/09 00:46:08;;;;;;;8.98;5.78;;;1.00;99.90;;;;;;5002396;28;20516;-78
2022/03/09 00:48:34;;;;;;;8.55;5.60;;;-0.20;99.90;;;;;;5005278;28;20124;-77
2022/03/09 00:51:00;;;;;;;12.48;5.97;;;-0.20;99.90;;;;;;4999295;28;20064;-78
2022/03/09 00:53:25;;;;;;;13.25;5.70;;;1.30;99.90;;;;;;5030946;28;20053;-77
2022/03/09 00:55:51;;;;;;;9.82;6.22;;;1.30;99.90;;;;;;5014370;28;20048;-78
2022/03/09 00:58:17;;;;;;;9.73;6.72;;;1.20;99.90;;;;;;5015154;28;20046;-79
2022/03/09 01:00:42;;;;;;;9.20;6.22;;;0.80;99.90;;;;;;5012541;28;20459;-77
2022/03/09 01:03:08;;;;;;;8.45;6.20;;;-0.10;99.90;;;;;;5014127;28;20060;-78
2022/03/09 01:05:34;;;;;;;8.68;6.13;;;-0.10;99.90;;;;;;4990117;28;20410;-77
2022/03/09 01:08:00;;;;;;;9.20;5.60;;;0.50;99.90;;;;;;5006836;28;20034;-76
2022/03/09 01:10:26;;;;;;;9.25;5.82;;;-0.50;99.90;;;;;;5014559;28;20592;-77
2022/03/09 01:12:51;;;;;;;9.85;6.20;;;-0.10;99.90;;;;;;5013562;28;20414;-77
2022/03/09 01:15:17;;;;;;;10.68;6.47;;;-0.10;99.90;;;;;;4999311;28;20057;-80
2022/03/09 01:17:44;;;;;;;10.68;6.18;;;-0.10;99.90;;;;;;5006388;28;20056;-78
2022/03/09 01:20:10;;;;;;;10.82;6.10;;;1.70;99.90;;;;;;5007264;28;20053;-77
2022/03/09 01:22:36;;;;;;;9.32;5.80;;;-0.10;99.90;;;;;;5016801;28;20057;-78
2022/03/09 01:25:02;;;;;;;9.52;5.75;;;-0.10;99.90;;;;;;5016461;28;20053;-78
2022/03/09 01:27:28;;;;;;;11.05;6.18;;;-0.10;99.90;;;;;;4986871;28;20055;-77
2022/03/09 01:29:54;;;;;;;9.50;6.07;;;1.20;99.90;;;;;;5007135;28;20037;-77
2022/03/09 01:32:21;;;;;;;9.85;6.50;;;1.60;99.90;;;;;;4997590;28;20050;-79
2022/03/09 01:34:48;;;;;;;9.48;6.18;;;-0.10;99.90;;;;;;4999550;28;20083;-77
2022/03/09 01:37:14;;;;;;;9.82;6.10;;;0.60;99.90;;;;;;5005724;28;20112;-78
2022/03/09 01:39:39;;;;;;;8.95;6.03;;;1.40;99.90;;;;;;5009517;28;20065;-77
2022/03/09 01:42:05;;;;;;;8.70;6.30;;;-0.20;99.90;;;;;;5007694;28;20049;-77
2022/03/09 01:44:31;;;;;;;10.07;6.20;;;-0.20;99.90;;;;;;5021204;28;20081;-78
2022/03/09 01:46:57;;;;;;;10.70;6.75;;;-0.20;99.90;;;;;;5029450;28;20274;-79
2022/03/09 01:49:23;;;;;;;9.30;5.90;;;-0.20;99.90;;;;;;5014833;28;20057;-79
2022/03/09 01:51:52;;;;;;;11.75;6.43;;;-0.20;99.90;;;;;;5013231;28;20046;-77
2022/03/09 01:54:19;;;;;;;9.25;5.93;;;-0.30;99.90;;;;;;5026502;28;20061;-79
2022/03/09 01:56:46;;;;;;;9.98;6.45;;;-0.30;99.90;;;;;;5017578;28;20057;-79
2022/03/09 01:59:14;;;;;;;10.55;6.10;;;-0.40;99.90;;;;;;5014806;28;20038;-78
2022/03/09 02:01:41;;;;;;;10.07;6.10;;;-0.30;99.90;;;;;;5007994;28;20054;-77
2022/03/09 02:04:07;;;;;;;9.15;6.32;;;1.10;99.90;;;;;;5011244;28;20045;-78
2022/03/09 02:06:35;;;;;;;10.27;6.88;;;0.90;99.90;;;;;;5018106;28;20075;-79
2022/03/09 02:11:47;;;;;;;12.90;6.15;;;0.30;99.90;;;;;;5026930;28;20060;-78
2022/03/09 02:14:36;;;;;;;9.13;6.28;;;-0.30;99.90;;;;;;5009854;28;20041;-77
2022/03/09 02:17:19;;;;;;;12.15;6.15;;;-0.40;99.90;;;;;;5018337;28;20041;-78
2022/03/09 02:19:49;;;;;;;9.65;6.32;;;1.50;99.90;;;;;;5008553;28;20060;-78
2022/03/09 02:22:31;;;;;;;10.80;6.50;;;1.00;99.90;;;;;;5034850;28;20398;-78
2022/03/09 02:24:57;;;;;;;9.73;6.55;;;-0.60;99.90;;;;;;5002034;28;20496;-78
2022/03/09 02:27:23;;;;;;;10.95;7.10;;;-0.60;99.90;;;;;;5004090;28;20050;-80
2022/03/09 02:29:50;;;;;;;12.77;7.68;;;-0.30;99.90;;;;;;5004293;28;20073;-80
2022/03/09 02:32:16;;;;;;;10.18;6.20;;;-0.30;99.90;;;;;;5011858;28;20071;-78
2022/03/09 02:34:43;;;;;;;10.35;6.78;;;0.50;99.90;;;;;;4985526;28;20045;-77
2022/03/09 02:37:09;;;;;;;10.63;6.97;;;0.00;99.90;;;;;;5018791;28;20046;-78
2022/03/09 02:39:35;;;;;;;10.35;6.85;;;-0.60;99.90;;;;;;5014151;28;20048;-78
2022/03/09 02:42:01;;;;;;;11.98;6.97;;;0.20;99.90;;;;;;5024951;28;20053;-77
2022/03/09 02:44:26;;;;;;;12.20;7.00;;;-1.90;99.90;;;;;;5016345;28;20419;-79
2022/03/09 02:46:52;;;;;;;11.88;7.22;;;-0.20;99.90;;;;;;4975916;28;20045;-77
2022/03/09 02:49:18;;;;;;;12.07;6.95;;;-0.70;99.90;;;;;;5002147;28;20053;-79
2022/03/09 02:51:44;;;;;;;9.63;6.72;;;-1.60;99.90;;;;;;4988754;28;20220;-79
2022/03/09 02:54:10;;;;;;;10.50;6.65;;;-0.80;99.90;;;;;;5010216;28;20045;-78
2022/03/09 02:56:35;;;;;;;10.23;6.63;;;0.70;99.90;;;;;;5008948;28;20042;-79
2022/03/09 02:59:01;;;;;;;11.27;6.50;;;-0.80;99.90;;;;;;5017062;28;20108;-77
2022/03/09 03:01:27;;;;;;;10.60;6.90;;;0.40;99.90;;;;;;5004338;28;20057;-80
2022/03/09 03:03:53;;;;;;;9.90;6.70;;;-0.10;99.90;;;;;;5007005;28;20062;-78
2022/03/09 03:06:19;;;;;;;12.68;6.93;;;-0.60;99.90;;;;;;5015291;28;20049;-78
2022/03/09 03:08:45;;;;;;;15.30;7.32;;;0.00;99.90;;;;;;5001315;28;20052;-79
2022/03/09 03:11:11;;;;;;;8.98;6.68;;;-1.00;99.90;;;;;;5000343;28;20053;-79
2022/03/09 03:13:38;;;;;;;10.68;6.75;;;0.40;99.90;;;;;;5000288;28;20091;-78
2022/03/09 03:16:05;;;;;;;11.02;6.80;;;-1.00;99.90;;;;;;4987229;28;20038;-79
2022/03/09 03:18:31;;;;;;;10.75;7.40;;;-0.70;99.90;;;;;;5008300;28;20092;-79
2022/03/09 03:20:57;;;;;;;11.23;7.22;;;-1.00;99.90;;;;;;5007789;28;20496;-79
2022/03/09 03:23:28;;;;;;;11.00;7.63;;;-0.30;99.90;;;;;;5016285;28;20138;-78
2022/03/09 03:25:55;;;;;;;13.23;7.18;;;-1.00;99.90;;;;;;5019024;28;20041;-79
2022/03/09 03:28:21;;;;;;;9.95;6.95;;;0.40;99.90;;;;;;5017818;28;20522;-77
2022/03/09 03:30:47;;;;;;;13.00;7.05;;;0.80;99.90;;;;;;5014532;28;20520;-79
2022/03/09 03:33:15;;;;;;;11.07;6.78;;;-0.60;99.90;;;;;;5013124;28;20041;-79
2022/03/09 03:35:41;;;;;;;12.45;6.95;;;0.50;99.90;;;;;;5013332;28;20112;-79
2022/03/09 03:38:07;;;;;;;10.70;6.93;;;-0.80;99.90;;;;;;5008164;28;20068;-79
2022/03/09 03:40:34;;;;;;;11.18;6.90;;;0.60;99.90;;;;;;5016084;28;20076;-79
2022/03/09 03:42:59;;;;;;;11.10;6.68;;;0.60;99.90;;;;;;5015263;28;20396;-78
2022/03/09 03:45:25;;;;;;;10.70;7.13;;;-0.60;99.90;;;;;;5009137;28;20057;-79
2022/03/09 03:47:51;;;;;;;13.18;6.97;;;0.70;99.90;;;;;;4999283;28;20075;-79
2022/03/09 03:50:18;;;;;;;11.05;6.68;;;-0.60;99.90;;;;;;5004538;28;20053;-79
2022/03/09 03:52:44;;;;;;;10.80;7.38;;;0.60;99.90;;;;;;5013610;28;20045;-78
2022/03/09 03:55:10;;;;;;;12.93;7.57;;;-0.80;99.90;;;;;;5006658;28;20558;-78
2022/03/09 03:57:35;;;;;;;10.93;6.88;;;-0.80;99.90;;;;;;5023492;28;20108;-79
2022/03/09 04:00:03;;;;;;;12.65;7.28;;;0.10;99.90;;;;;;4991358;28;20037;-78
2022/03/09 04:02:29;;;;;;;10.88;6.95;;;-0.80;99.90;;;;;;4998557;28;20053;-81
2022/03/09 04:04:54;;;;;;;11.23;7.00;;;-0.80;99.90;;;;;;5014298;28;20042;-78
2022/03/09 04:07:20;;;;;;;10.93;6.90;;;0.70;99.90;;;;;;5013733;28;20491;-78
2022/03/09 04:09:46;;;;;;;11.30;7.55;;;0.50;99.90;;;;;;5012783;28;20074;-79
2022/03/09 04:12:12;;;;;;;10.45;6.80;;;-1.00;99.90;;;;;;5014490;28;20065;-79
2022/03/09 04:14:38;;;;;;;12.82;6.85;;;-0.10;99.90;;;;;;4982707;28;20041;-79
2022/03/09 04:17:04;;;;;;;10.25;7.00;;;0.60;99.90;;;;;;5014167;28;20050;-79
2022/03/09 04:19:29;;;;;;;12.85;7.15;;;-1.10;99.90;;;;;;5008996;28;20377;-80
2022/03/09 04:21:55;;;;;;;13.40;8.15;;;-1.20;99.90;;;;;;5017678;28;20050;-78
2022/03/09 04:24:21;;;;;;;11.60;6.85;;;0.00;99.90;;;;;;5000065;28;20050;-78
2022/03/09 04:26:47;;;;;;;10.95;7.50;;;-0.70;99.90;;;;;;5000853;28;20038;-78
2022/03/09 04:29:13;;;;;;;11.02;7.75;;;-0.20;99.90;;;;;;5013175;28;20045;-78
2022/03/09 04:31:39;;;;;;;12.57;7.00;;;0.40;99.90;;;;;;4990802;28;20637;-78
2022/03/09 04:34:05;;;;;;;13.20;6.72;;;-1.20;99.90;;;;;;5013388;28;20108;-78
2022/03/09 04:36:31;;;;;;;10.80;7.03;;;-1.20;99.90;;;;;;5003123;28;20045;-80
2022/03/09 04:38:56;;;;;;;12.35;7.68;;;-0.10;99.90;;;;;;5007340;28;20491;-78
2022/03/09 04:41:22;;;;;;;12.13;7.30;;;0.10;99.90;;;;;;5019821;28;20052;-78
2022/03/09 04:43:48;;;;;;;12.40;7.20;;;-1.30;99.90;;;;;;5020678;28;20073;-78
2022/03/09 04:46:14;;;;;;;10.88;7.43;;;-1.30;99.90;;;;;;5014185;28;20056;-79
2022/03/09 04:48:40;;;;;;;13.48;7.88;;;-1.30;99.90;;;;;;4996819;28;20050;-78
2022/03/09 04:51:06;;;;;;;13.93;8.02;;;-0.70;99.90;;;;;;5001783;28;20055;-79
2022/03/09 04:53:32;;;;;;;11.57;6.97;;;-1.30;99.90;;;;;;5016383;28;20052;-80
2022/03/09 04:55:58;;;;;;;12.40;6.68;;;-1.40;99.90;;;;;;5003940;28;20045;-79
2022/03/09 04:58:24;;;;;;;12.35;7.35;;;0.20;99.90;;;;;;5004612;28;20407;-79
2022/03/09 05:00:51;;;;;;;11.77;7.82;;;0.10;99.90;;;;;;4997580;28;20472;-78
2022/03/09 05:03:17;;;;;;;13.73;7.40;;;-0.20;99.90;;;;;;5033762;28;20054;-78
2022/03/09 05:05:42;;;;;;;12.15;7.53;;;-1.50;99.90;;;;;;4984407;28;20048;-78
2022/03/09 05:08:11;;;;;;;13.13;7.38;;;-1.60;99.90;;;;;;5001759;28;20103;-78
2022/03/09 05:10:37;;;;;;;12.68;7.40;;;0.40;99.90;;;;;;4993118;28;20483;-78
2022/03/09 05:13:04;;;;;;;12.30;7.45;;;-1.60;99.90;;;;;;5010043;28;20045;-80
2022/03/09 05:15:30;;;;;;;12.10;8.00;;;-1.60;99.90;;;;;;5000643;28;20057;-79
2022/03/09 05:17:56;;;;;;;12.55;8.10;;;-1.10;99.90;;;;;;5019488;28;20107;-79
2022/03/09 05:20:22;;;;;;;11.95;7.32;;;-0.30;99.90;;;;;;5013258;28;20545;-79
2022/03/09 05:22:48;;;;;;;11.43;7.47;;;-1.60;99.90;;;;;;5015265;28;20112;-81
2022/03/09 05:25:14;;;;;;;12.88;7.00;;;-0.60;99.90;;;;;;5004080;28;20068;-79
2022/03/09 05:27:41;;;;;;;14.90;8.23;;;-0.70;99.90;;;;;;5001624;28;20060;-79
2022/03/09 05:30:11;;;;;;;14.02;7.70;;;-1.70;99.90;;;;;;5023877;28;20088;-79
2022/03/09 05:32:38;;;;;;;11.77;7.55;;;-1.70;99.90;;;;;;5012206;28;20049;-79
2022/03/09 05:35:05;;;;;;;11.73;7.88;;;-1.70;99.90;;;;;;5020609;28;20048;-78
2022/03/09 05:37:38;;;;;;;12.00;7.00;;;-1.70;99.90;;;;;;5006514;28;20052;-77
2022/03/09 05:40:05;;;;;;;10.85;6.88;;;-1.40;99.90;;;;;;5035070;28;20411;-79
2022/03/09 05:42:31;;;;;;;11.65;6.97;;;-1.70;99.90;;;;;;5004528;28;20049;-79
2022/03/09 05:44:57;;;;;;;10.50;6.25;;;-1.80;99.90;;;;;;5016165;28;20505;-78
2022/03/09 05:47:23;;;;;;;12.70;7.30;;;-1.80;99.90;;;;;;4997766;28;20099;-78
2022/03/09 05:49:48;;;;;;;11.52;7.43;;;-1.80;99.90;;;;;;5014693;28;20045;-77
2022/03/09 05:52:14;;;;;;;12.02;7.30;;;-1.40;99.90;;;;;;5006992;28;20054;-77
2022/03/09 05:54:40;;;;;;;14.52;7.55;;;-1.90;99.90;;;;;;5007384;28;20077;-77
2022/03/09 05:57:06;;;;;;;12.70;7.72;;;-0.50;99.90;;;;;;5014657;28;20132;-78
2022/03/09 05:59:31;;;;;;;11.23;6.85;;;-0.10;99.90;;;;;;5016005;28;20054;-77
2022/03/09 06:01:57;;;;;;;12.48;7.70;;;-1.10;99.90;;;;;;5003343;28;20033;-78
2022/03/09 06:04:23;;;;;;;11.30;7.25;;;-2.10;99.90;;;;;;5001909;28;20056;-78
2022/03/09 06:06:49;;;;;;;11.98;7.00;;;-2.10;99.90;;;;;;5000463;28;20058;-77
2022/03/09 06:09:14;;;;;;;12.73;7.70;;;-2.10;99.90;;;;;;5032362;28;20121;-78
2022/03/09 06:11:41;;;;;;;11.43;7.10;;;-0.50;99.90;;;;;;5016250;28;20573;-78
2022/03/09 06:14:07;;;;;;;10.57;6.75;;;-1.10;99.90;;;;;;5007866;28;20049;-78
2022/03/09 06:16:32;;;;;;;14.18;7.53;;;-2.20;99.90;;;;;;5003250;28;20048;-80
2022/03/09 06:18:58;;;;;;;11.70;7.45;;;-2.20;99.90;;;;;;5007702;28;20095;-80
2022/03/09 06:21:24;;;;;;;16.48;8.13;;;-1.40;99.90;;;;;;5016316;28;20041;-81
2022/03/09 06:23:50;;;;;;;12.73;7.25;;;-1.30;99.90;;;;;;4999990;28;20059;-85
2022/03/09 06:26:16;;;;;;;14.05;8.13;;;-1.70;99.90;;;;;;5004271;28;20042;-78
2022/03/09 06:28:42;;;;;;;11.65;6.80;;;-2.20;99.90;;;;;;5006964;28;20123;-80
2022/03/09 06:31:07;;;;;;;12.50;7.90;;;-1.90;99.90;;;;;;5000352;28;20050;-78
2022/03/09 06:33:33;;;;;;;12.07;7.35;;;-2.20;99.90;;;;;;4999022;28;20130;-78
2022/03/09 06:35:59;;;;;;;13.73;6.80;;;-0.40;99.90;;;;;;5006141;28;20053;-79
2022/03/09 06:38:25;;;;;;;14.60;7.22;;;-2.20;99.90;;;;;;5002473;28;20048;-78
2022/03/09 06:40:51;;;;;;;12.98;7.43;;;-2.10;99.90;;;;;;5012671;28;20438;-78
2022/03/09 06:43:16;;;;;;;14.70;8.70;;;-0.60;99.90;;;;;;4999951;28;20136;-78
2022/03/09 06:45:42;;;;;;;14.82;8.40;;;-2.10;99.90;;;;;;5012991;28;20045;-77
2022/03/09 06:48:08;;;;;;;15.10;8.48;;;-1.50;99.90;;;;;;5014468;28;20050;-78
2022/03/09 06:50:34;;;;;;;14.73;8.68;;;-2.00;99.90;;;;;;5024396;28;20046;-78
2022/03/09 06:53:00;;;;;;;14.88;8.48;;;-0.50;99.90;;;;;;5018339;28;20050;-79
2022/03/09 06:55:26;;;;;;;11.10;7.55;;;0.00;99.90;;;;;;5000840;28;20140;-80
2022/03/09 06:57:52;;;;;;;13.23;7.85;;;-1.90;99.90;;;;;;4996441;28;20191;-81
2022/03/09 07:00:18;;;;;;;13.45;7.72;;;-1.80;99.90;;;;;;5015444;28;20052;-81
2022/03/09 07:02:45;;;;;;;14.02;7.53;;;-0.10;99.90;;;;;;5006793;28;20072;-80
2022/03/09 07:05:12;;;;;;;13.50;8.23;;;-1.30;99.90;;;;;;5005096;28;20076;-81
2022/03/09 07:07:38;;;;;;;11.80;7.80;;;-0.20;99.90;;;;;;5016398;28;20103;-82
2022/03/09 07:10:10;;;;;;;13.00;7.53;;;0.10;99.90;;;;;;5015720;28;20046;-78
2022/03/09 07:12:37;;;;;;;15.05;7.97;;;-1.40;99.90;;;;;;4999799;28;20041;-82
2022/03/09 07:15:03;;;;;;;14.18;8.02;;;-1.40;99.90;;;;;;5014372;28;20050;-83
2022/03/09 07:17:35;;;;;;;13.88;8.40;;;-1.20;99.90;;;;;;5005288;28;20120;-80
2022/03/09 07:20:01;;;;;;;11.55;7.55;;;-1.10;99.90;;;;;;5008390;28;20065;-80
2022/03/09 07:22:39;;;;;;;13.48;7.95;;;-1.00;99.90;;;;;;5022422;28;20546;-82
2022/03/09 07:25:05;;;;;;;12.93;8.63;;;-0.90;99.90;;;;;;5031390;28;20054;-80
2022/03/09 07:27:32;;;;;;;14.30;8.07;;;-0.70;99.90;;;;;;5008596;28;20100;-80
2022/03/09 07:29:57;;;;;;;15.05;8.60;;;-0.70;99.90;;;;;;5025486;28;20786;-81
2022/03/09 07:32:23;;;;;;;13.20;8.27;;;-0.80;99.90;;;;;;4984609;28;20085;-81
2022/03/09 07:34:49;;;;;;;15.02;8.60;;;0.60;99.90;;;;;;5001185;28;20459;-80
2022/03/09 07:37:15;;;;;;;14.07;8.20;;;0.80;99.90;;;;;;5002374;28;20506;-79
2022/03/09 07:39:41;;;;;;;12.57;7.80;;;0.20;99.90;;;;;;5016315;28;20594;-80
2022/03/09 07:42:07;;;;;;;13.15;8.05;;;1.40;99.90;;;;;;5000781;28;20049;-82
2022/03/09 07:44:33;;;;;;;12.25;7.70;;;-0.40;99.90;;;;;;4998410;28;20858;-79
2022/03/09 07:46:58;;;;;;;12.35;7.72;;;0.70;99.90;;;;;;5024587;28;20510;-81
2022/03/09 07:49:24;;;;;;;12.27;7.72;;;-0.20;99.90;;;;;;4998948;28;20551;-80
2022/03/09 07:51:53;;;;;;;17.52;9.02;;;1.50;99.90;;;;;;4984241;28;20115;-82
2022/03/09 07:54:19;;;;;;;14.20;7.95;;;0.10;99.90;;;;;;5015763;28;20087;-78
2022/03/09 07:56:44;;;;;;;11.55;7.57;;;0.10;99.90;;;;;;5001308;28;20053;-81
2022/03/09 07:59:11;;;;;;;13.57;7.18;;;1.60;99.90;;;;;;5007949;28;20049;-79
2022/03/09 08:01:39;;;;;;;15.68;8.13;;;0.40;99.90;;;;;;5015984;28;20058;-80
2022/03/09 08:04:08;;;;;;;14.20;7.82;;;0.50;99.90;;;;;;5013943;28;20057;-81
2022/03/09 08:06:34;;;;;;;12.55;7.65;;;1.70;99.90;;;;;;5007089;28;20453;-80
2022/03/09 08:09:00;;;;;;;13.15;8.25;;;0.90;99.90;;;;;;5007889;28;20042;-80
2022/03/09 08:11:26;;;;;;;15.43;8.10;;;1.00;99.90;;;;;;5000192;28;20103;-79
2022/03/09 08:13:53;;;;;;;14.00;8.23;;;1.10;99.90;;;;;;4998298;28;20388;-81
2022/03/09 08:16:19;;;;;;;23.85;8.05;;;1.80;99.90;;;;;;5008690;28;20053;-80
2022/03/09 08:18:45;;;;;;;12.93;7.95;;;1.50;99.90;;;;;;4983659;28;20076;-81
2022/03/09 08:21:10;;;;;;;12.32;8.13;;;1.70;99.90;;;;;;5014088;28;20045;-80
2022/03/09 08:23:36;;;;;;;13.23;8.23;;;2.70;99.90;;;;;;5008144;28;20060;-80
2022/03/09 08:26:02;;;;;;;13.15;8.05;;;2.40;99.90;;;;;;5000073;28;20092;-81
2022/03/09 08:28:31;;;;;;;13.60;7.53;;;2.70;99.90;;;;;;5001703;28;20384;-82
2022/03/09 08:30:57;;;;;;;12.25;8.05;;;3.00;99.90;;;;;;5008325;28;20095;-81
2022/03/09 08:33:22;;;;;;;12.20;8.02;;;3.30;99.90;;;;;;5007414;28;20049;-81
2022/03/09 08:35:49;;;;;;;11.60;8.27;;;3.50;99.90;;;;;;5016526;28;20637;-80
2022/03/09 08:38:15;;;;;;;11.77;8.13;;;4.10;99.90;;;;;;4999363;28;20046;-79
2022/03/09 08:40:41;;;;;;;11.98;8.05;;;4.00;99.90;;;;;;5002969;28;20076;-80
2022/03/09 08:43:07;;;;;;;14.88;8.55;;;4.60;99.90;;;;;;5005621;28;20080;-80
2022/03/09 08:45:32;;;;;;;11.18;7.75;;;4.50;99.90;;;;;;5007839;28;20041;-81
2022/03/09 08:47:58;;;;;;;10.98;7.65;;;4.60;99.90;;;;;;5009240;28;20053;-81
2022/03/09 08:50:24;;;;;;;13.35;7.95;;;4.90;99.90;;;;;;5003603;28;20539;-80
2022/03/09 08:52:50;;;;;;;11.18;7.95;;;6.40;99.90;;;;;;5005265;28;20046;-80
2022/03/09 08:55:15;;;;;;;12.40;8.60;;;5.80;99.90;;;;;;5017496;28;20053;-81
2022/03/09 08:57:41;;;;;;;14.98;8.75;;;5.50;99.90;;;;;;5012202;28;20042;-81
2022/03/09 09:00:07;;;;;;;12.65;8.55;;;5.60;99.90;;;;;;5012617;28;20501;-81
2022/03/09 09:02:33;;;;;;;13.65;8.43;;;5.80;99.90;;;;;;4992618;28;20057;-81
2022/03/09 09:04:59;;;;;;;12.60;8.15;;;6.10;99.90;;;;;;4986243;28;20059;-81
2022/03/09 09:07:25;;;;;;;12.20;8.60;;;6.30;99.90;;;;;;4999487;28;20409;-81
2022/03/09 09:09:56;;;;;;;13.10;8.48;;;6.50;99.90;;;;;;5016140;28;20045;-84
2022/03/09 09:12:25;;;;;;;11.90;7.72;;;6.70;99.90;;;;;;4977577;28;20053;-85
2022/03/09 09:14:51;;;;;;;11.48;8.00;;;6.90;99.90;;;;;;4982147;28;20179;-81
2022/03/09 09:17:17;;;;;;;13.25;8.75;;;7.10;99.90;;;;;;5018146;28;20129;-81
2022/03/09 09:19:43;;;;;;;12.82;8.70;;;7.30;99.90;;;;;;5007354;28;20052;-81
2022/03/09 09:22:09;;;;;;;12.55;8.68;;;7.40;99.90;;;;;;5031887;28;20598;-81
2022/03/09 09:24:35;;;;;;;13.23;8.57;;;7.40;99.90;;;;;;5003916;28;20196;-82
2022/03/09 09:27:03;;;;;;;13.88;8.63;;;7.40;99.90;;;;;;5003252;28;20129;-84
2022/03/09 09:29:29;;;;;;;13.40;8.60;;;7.40;99.90;;;;;;5013693;28;20168;-82
2022/03/09 09:31:55;;;;;;;11.52;7.93;;;7.50;99.90;;;;;;4989143;28;20157;-80
2022/03/09 09:34:21;;;;;;;14.00;9.05;;;7.60;99.90;;;;;;5030485;28;20614;-82
2022/03/09 09:37:02;;;;;;;;;;;;;;;;;;;;;
2022/03/09 09:39:49;;;;;;;;;;;;;;;;;;;;;
2022/03/09 09:42:22;;;;;;;15.13;8.43;;;8.10;99.90;;;;;;5015193;28;20042;-87
2022/03/09 09:45:09;;;;;;;13.32;8.55;;;8.30;99.90;;;;;;4986149;28;20502;-88
2022/03/09 09:48:28;;;;;;;11.77;7.43;;;8.40;99.90;;;;;;5013806;28;20056;-86
2022/03/09 09:50:55;;;;;;;10.43;7.38;;;9.00;99.90;;;;;;4977009;28;20141;-87
2022/03/09 09:53:53;;;;;;;12.40;7.57;;;10.20;99.90;;;;;;5007936;28;20092;-88
2022/03/09 09:56:21;;;;;;;11.40;7.68;;;9.30;99.90;;;;;;5035092;28;20100;-86
2022/03/09 09:58:48;;;;;;;9.80;7.40;;;9.40;99.90;;;;;;5017834;28;20069;-85
2022/03/09 10:01:19;;;;;;;11.52;7.43;;;8.50;99.90;;;;;;5005265;28;20051;-86
2022/03/09 10:03:44;;;;;;;9.13;7.07;;;9.60;99.20;;;;;;5008042;28;20112;-86
2022/03/09 10:06:10;;;;;;;10.32;7.10;;;9.90;99.90;;;;;;5017394;28;20046;-85
2022/03/09 10:08:56;;;;;;;10.90;7.10;;;10.10;99.80;;;;;;5016954;28;20060;-87
2022/03/09 10:11:25;;;;;;;12.75;7.13;;;10.50;99.50;;;;;;5003958;28;20541;-87
2022/03/09 10:13:51;;;;;;;10.90;7.60;;;10.60;99.20;;;;;;5007755;28;20095;-85
2022/03/09 10:16:20;;;;;;;9.80;6.63;;;10.60;98.50;;;;;;5000658;28;20038;-85
2022/03/09 10:18:56;;;;;;;11.80;7.35;;;10.60;97.60;;;;;;5034113;28;20512;-83
2022/03/09 10:21:41;;;;;;;11.38;6.63;;;10.80;98.00;;;;;;5033975;28;20053;-85
2022/03/09 10:24:11;;;;;;;10.93;7.10;;;10.80;97.70;;;;;;4999110;28;20068;-86
2022/03/09 10:27:04;;;;;;;;;;;;;;;;;;;;;
2022/03/09 10:29:30;;;;;;;9.88;6.22;;;10.90;96.60;;;;;;5003489;28;20065;-85
2022/03/09 10:32:01;;;;;;;10.18;6.82;;;11.00;97.50;;;;;;5006960;28;20049;-85
2022/03/09 10:34:55;;;;;;;8.32;6.38;;;10.30;96.90;;;;;;5016271;28;20058;-85
2022/03/09 10:37:49;;;;;;;8.52;6.13;;;10.70;95.80;;;;;;5009282;28;20501;-87
2022/03/09 10:40:20;;;;;;;9.63;6.72;;;11.00;96.00;;;;;;5007715;28;20160;-85
2022/03/09 10:42:50;;;;;;;8.48;6.20;;;10.90;96.00;;;;;;5018482;28;20049;-86
2022/03/09 10:45:17;;;;;;;7.93;6.22;;;10.90;96.20;;;;;;5017677;28;21005;-84
2022/03/09 10:47:49;;;;;;;9.05;6.40;;;11.00;96.40;;;;;;5020797;28;20045;-83
2022/03/09 10:50:24;;;;;;;9.90;6.28;;;11.10;95.00;;;;;;5009634;28;20033;-84
2022/03/09 10:52:55;;;;;;;8.80;6.40;;;11.40;94.90;;;;;;5002795;28;20087;-83
2022/03/09 10:55:31;;;;;;;8.40;6.28;;;11.40;94.90;;;;;;5012351;28;20305;-84
2022/03/09 10:58:14;;;;;;;;;;;11.60;93.90;;;;;;5029243;28;20091;-84
2022/03/09 11:00:49;;;;;;;7.97;5.82;;;11.80;90.20;;;;;;5016462;28;19968;-85
2022/03/09 11:03:25;;;;;;;9.52;6.15;;;11.90;92.20;;;;;;5016509;28;20046;-85
2022/03/09 11:06:02;;;;;;;10.45;6.65;;;12.10;92.40;;;;;;5006322;28;20128;-88
2022/03/09 11:08:50;;;;;;;9.65;6.30;;;12.30;89.60;;;;;;5016167;28;20096;-87
2022/03/09 11:11:19;;;;;;;9.27;6.28;;;12.40;88.40;;;;;;5014762;28;20486;-86
2022/03/09 11:13:46;;;;;;;11.07;6.88;;;12.30;85.80;;;;;;5004976;28;20103;-83
2022/03/09 11:16:20;;;;;;;9.23;6.32;;;12.80;87.40;;;;;;5006420;28;20049;-85
2022/03/09 11:18:56;;;;;;;;;;;;;;;;;;;;;
2022/03/09 11:21:44;;;;;;;9.20;7.00;;;13.40;88.10;;;;;;5017214;28;20120;-85
2022/03/09 11:24:15;;;;;;;10.60;6.85;;;13.70;82.40;;;;;;5002110;28;20190;-83
2022/03/09 11:26:50;;;;;;;8.88;7.18;;;14.00;81.50;;;;;;5024174;28;20045;-82
2022/03/09 11:29:35;;;;;;;8.68;6.85;;;14.20;79.60;;;;;;5000679;28;20064;-82
2022/03/09 11:32:05;;;;;;;9.23;7.10;;;14.50;78.70;;;;;;5002786;28;20045;-84
2022/03/09 11:34:37;;;;;;;12.25;6.90;;;14.40;73.40;;;;;;5018517;28;20045;-82
2022/03/09 11:37:12;;;;;;;9.90;6.60;;;14.60;72.80;;;;;;5025812;28;20049;-84
2022/03/09 11:40:13;;;;;;;10.13;7.28;;;14.70;72.20;;;;;;5017743;28;20084;-84
2022/03/09 11:42:47;;;;;;;10.20;6.95;;;15.60;71.30;;;;;;4990873;28;20107;-82
2022/03/09 11:45:16;;;;;;;9.15;6.82;;;16.30;69.00;;;;;;4999986;28;20478;-82
2022/03/09 11:48:03;;;;;;;8.60;6.90;;;16.60;65.90;;;;;;5017808;28;20052;-82
2022/03/09 11:50:36;;;;;;;10.05;7.57;;;17.20;63.40;;;;;;5016604;28;20045;-84
2022/03/09 11:53:08;;;;;;;8.88;7.70;;;17.60;60.00;;;;;;5000541;28;20049;-81
2022/03/09 11:55:35;;;;;;;9.40;7.47;;;18.10;57.60;;;;;;5000620;28;20088;-81
2022/03/09 11:58:04;;;;;;;9.75;7.40;;;18.80;57.20;;;;;;5004901;28;20057;-81
2022/03/09 12:00:32;;;;;;;10.43;7.07;;;19.70;56.10;;;;;;5015947;28;20042;-82
2022/03/09 12:02:58;;;;;;;9.75;7.65;;;20.10;53.70;;;;;;5007979;28;20049;-83
2022/03/09 12:05:24;;;;;;;9.48;7.90;;;20.10;51.40;;;;;;5009681;28;20053;-81
2022/03/09 12:07:58;;;;;;;10.88;7.63;;;20.00;49.70;;;;;;5007470;28;20050;-82
2022/03/09 12:10:46;;;;;;;10.05;7.72;;;19.90;49.00;;;;;;5017285;28;20041;-82
2022/03/09 12:13:19;;;;;;;10.68;8.07;;;20.30;48.00;;;;;;5000562;28;20042;-81
2022/03/09 12:16:05;;;;;;;11.57;8.20;;;20.00;47.70;;;;;;5017699;28;20063;-83
2022/03/09 12:18:37;;;;;;;;;;;20.20;47.60;;;;;;5017275;28;20054;-82
2022/03/09 12:21:05;;;;;;;12.05;7.97;;;19.70;46.30;;;;;;5024677;28;19933;-83
2022/03/09 12:23:32;;;;;;;11.38;8.85;;;19.90;47.80;;;;;;5016249;28;20054;-83
2022/03/09 12:25:58;;;;;;;11.18;8.57;;;19.70;47.50;;;;;;5008716;28;22490;-82
2022/03/09 12:28:24;;;;;;;10.40;8.60;;;19.70;47.60;;;;;;5006412;28;20041;-83
2022/03/09 12:30:58;;;;;;;11.77;9.80;;;19.70;47.20;;;;;;5005854;28;20068;-83
2022/03/09 12:33:32;;;;;;;13.00;9.52;;;19.60;46.40;;;;;;5000453;28;20058;-83
2022/03/09 12:36:08;;;;;;;10.82;8.80;;;19.60;46.60;;;;;;5006496;28;20526;-83
2022/03/09 12:39:05;;;;;;;14.13;9.68;;;19.90;47.10;;;;;;5018675;28;20045;-90
2022/03/09 12:41:41;;;;;;;12.13;9.02;;;20.10;45.80;;;;;;5008416;28;20141;-83
2022/03/09 12:44:15;;;;;;;12.40;9.70;;;20.00;46.10;;;;;;5030833;28;20052;-84
2022/03/09 12:46:46;;;;;;;12.85;9.32;;;20.40;45.80;;;;;;5014795;28;20062;-84
2022/03/09 12:49:15;;;;;;;13.23;9.70;;;20.30;45.80;;;;;;5006729;28;20038;-82
2022/03/09 12:51:54;;;;;;;12.70;9.50;;;20.40;46.20;;;;;;5014709;28;20167;-83
2022/03/09 12:54:33;;;;;;;11.73;9.43;;;19.80;44.50;;;;;;5013644;28;20057;-84
2022/03/09 12:57:09;;;;;;;11.85;9.40;;;20.00;45.60;;;;;;4997182;28;20049;-82
2022/03/09 12:59:36;;;;;;;11.30;9.10;;;19.90;45.30;;;;;;5016867;28;20076;-84